Time;durP1;ratioP1;P1;durP2;ratioP2;P2;SDS_P1;SDS_P2;PMS_P1;PMS_P2;Temp;Humidity;BMP_temperature;BMP_pressure;BME280_temperature;BME280_humidity;BME280_pressure;Samples;Min_cycle;Max_cycle;Signal;HPM_P1;HPM_P2
2024/03/20 00:00:54;;;;;;;;;41.50;39.00;;;;;;;;6490501;39;9043;-57
2024/03/20 00:06:55;;;;;;;;;54.50;44.25;;;;;;;;6490147;39;9644;-59
2024/03/20 00:12:56;;;;;;;;;47.75;41.25;;;;;;;;6490808;39;9040;-59
2024/03/20 00:18:57;;;;;;;;;54.50;43.25;;;;;;;;6491258;31;8965;-59
2024/03/20 00:24:59;;;;;;;;;43.25;36.50;;;;;;;;6491193;39;8869;-60
2024/03/20 00:31:04;;;;;;;;;49.25;38.50;;;;;;;;6491679;31;9281;-59
2024/03/20 00:37:05;;;;;;;;;46.75;42.50;;;;;;;;6489515;39;8939;-58
2024/03/20 00:43:06;;;;;;;;;52.00;42.00;;;;;;;;6489904;47;8906;-57
2024/03/20 00:49:08;;;;;;;;;54.75;45.75;;;;;;;;6490043;31;8916;-59
2024/03/20 00:55:09;;;;;;;;;44.75;38.50;;;;;;;;6490197;39;9053;-59
2024/03/20 01:01:11;;;;;;;;;47.50;42.00;;;;;;;;6490172;39;9028;-57
2024/03/20 01:07:14;;;;;;;;;51.25;43.50;;;;;;;;6490684;31;8878;-60
2024/03/20 01:13:15;;;;;;;;;48.00;42.25;;;;;;;;6491333;31;8984;-60
2024/03/20 01:19:16;;;;;;;;;57.50;49.25;;;;;;;;6491211;31;8858;-58
2024/03/20 01:25:18;;;;;;;;;51.25;43.50;;;;;;;;6492367;31;9582;-57
2024/03/20 01:31:19;;;;;;;;;49.00;43.33;;;;;;;;6492056;39;8862;-58
2024/03/20 01:37:21;;;;;;;;;49.00;44.00;;;;;;;;6492530;39;8889;-58
2024/03/20 01:43:22;;;;;;;;;54.25;46.25;;;;;;;;6492009;39;8878;-58
2024/03/20 01:49:23;;;;;;;;;42.25;36.75;;;;;;;;6491828;39;8951;-57
2024/03/20 01:55:24;;;;;;;;;49.33;42.67;;;;;;;;6492810;31;9482;-57
2024/03/20 02:01:27;;;;;;;;;50.50;42.25;;;;;;;;6491598;46;8987;-59
2024/03/20 02:07:28;;;;;;;;;49.00;44.33;;;;;;;;6491184;39;8921;-58
2024/03/20 02:13:29;;;;;;;;;55.67;46.67;;;;;;;;6491628;39;9024;-57
2024/03/20 02:19:31;;;;;;;;;45.67;40.67;;;;;;;;6491201;46;8862;-57
2024/03/20 02:25:32;;;;;;;;;40.00;37.67;;;;;;;;6490539;46;8884;-60
2024/03/20 02:31:34;;;;;;;;;42.00;37.00;;;;;;;;6491672;39;8910;-57
2024/03/20 02:37:36;;;;;;;;;46.75;39.25;;;;;;;;6492185;31;8888;-59
2024/03/20 02:43:38;;;;;;;;;43.50;38.50;;;;;;;;6491714;39;8886;-59
2024/03/20 02:49:40;;;;;;;;;43.75;38.75;;;;;;;;6491213;39;8896;-59
2024/03/20 02:55:43;;;;;;;;;49.50;41.50;;;;;;;;6490670;46;8905;-58
2024/03/20 03:01:45;;;;;;;;;50.75;44.50;;;;;;;;6491360;39;8932;-57
2024/03/20 03:07:47;;;;;;;;;46.50;41.75;;;;;;;;6491246;39;8937;-58
2024/03/20 03:13:49;;;;;;;;;55.00;42.00;;;;;;;;6491281;39;8921;-58
2024/03/20 03:19:51;;;;;;;;;47.25;44.50;;;;;;;;6490827;39;9024;-59
2024/03/20 03:25:53;;;;;;;;;50.67;42.67;;;;;;;;6490314;39;8868;-58
2024/03/20 03:31:54;;;;;;;;;48.00;44.67;;;;;;;;6491384;39;8938;-58
2024/03/20 03:37:57;;;;;;;;;61.00;49.33;;;;;;;;6491015;39;9633;-58
2024/03/20 03:43:58;;;;;;;;;53.25;44.25;;;;;;;;6490705;46;8918;-58
2024/03/20 03:49:59;;;;;;;;;49.00;42.25;;;;;;;;6490734;39;9612;-59
2024/03/20 03:56:01;;;;;;;;;53.50;45.75;;;;;;;;6490093;39;9008;-56
2024/03/20 04:02:03;;;;;;;;;52.00;44.67;;;;;;;;6460345;46;9038;-52
2024/03/20 04:08:04;;;;;;;;;53.25;45.00;;;;;;;;6491388;31;9045;-52
2024/03/20 04:14:07;;;;;;;;;53.25;42.50;;;;;;;;6492516;31;9037;-54
2024/03/20 04:20:10;;;;;;;;;52.50;40.75;;;;;;;;6493116;39;9413;-55
2024/03/20 04:26:12;;;;;;;;;46.00;39.25;;;;;;;;6492683;46;8883;-52
2024/03/20 04:32:15;;;;;;;;;50.25;44.00;;;;;;;;6492711;46;8859;-54
2024/03/20 04:38:17;;;;;;;;;52.25;43.50;;;;;;;;6492864;39;8852;-51
2024/03/20 04:44:20;;;;;;;;;46.50;43.00;;;;;;;;6492319;39;8903;-53
2024/03/20 04:50:22;;;;;;;;;49.50;42.50;;;;;;;;6497711;39;8907;-54
2024/03/20 04:56:26;;;;;;;;;55.25;43.50;;;;;;;;6496396;46;8926;-53
2024/03/20 05:02:28;;;;;;;;;45.75;41.50;;;;;;;;6497070;39;8954;-56
2024/03/20 05:08:32;;;;;;;;;44.75;39.50;;;;;;;;6497818;39;8890;-53
2024/03/20 05:14:34;;;;;;;;;48.50;44.25;;;;;;;;6496396;31;8978;-52
2024/03/20 05:20:35;;;;;;;;;56.75;47.25;;;;;;;;6496619;39;9018;-53
2024/03/20 05:26:38;;;;;;;;;53.25;45.75;;;;;;;;6496140;39;8994;-53
2024/03/20 05:32:40;;;;;;;;;63.75;51.25;;;;;;;;6495493;39;9058;-58
2024/03/20 05:38:41;;;;;;;;;65.50;52.00;;;;;;;;6495702;39;9026;-52
2024/03/20 05:44:44;;;;;;;;;67.75;52.50;;;;;;;;6496869;39;8922;-55
2024/03/20 05:50:46;;;;;;;;;65.00;51.25;;;;;;;;6496333;46;8922;-55
2024/03/20 05:56:47;;;;;;;;;62.25;48.00;;;;;;;;6495406;39;8933;-55
2024/03/20 06:02:48;;;;;;;;;58.75;49.00;;;;;;;;6493944;39;9000;-55
2024/03/20 06:08:50;;;;;;;;;49.00;43.75;;;;;;;;6494654;39;8906;-54
2024/03/20 06:15:10;;;;;;;;;63.25;52.00;;;;;;;;6493879;39;8925;-55
2024/03/20 06:21:12;;;;;;;;;63.75;51.75;;;;;;;;6493958;46;8855;-55
2024/03/20 06:27:13;;;;;;;;;64.00;51.50;;;;;;;;6493205;31;8878;-55
2024/03/20 06:33:14;;;;;;;;;68.75;53.50;;;;;;;;6493726;31;9049;-55
2024/03/20 06:39:17;;;;;;;;;65.50;52.75;;;;;;;;6493195;39;9026;-57
2024/03/20 06:45:19;;;;;;;;;59.00;46.50;;;;;;;;6491903;46;9152;-57
2024/03/20 06:51:20;;;;;;;;;60.25;48.50;;;;;;;;6494440;39;8899;-58
2024/03/20 06:57:22;;;;;;;;;67.00;47.25;;;;;;;;6493038;39;8895;-57
2024/03/20 07:03:23;;;;;;;;;53.75;45.25;;;;;;;;6492870;39;9121;-57
2024/03/20 07:09:27;;;;;;;;;50.50;43.00;;;;;;;;6493633;39;8899;-57
2024/03/20 07:15:29;;;;;;;;;54.75;44.25;;;;;;;;6492252;39;8946;-59
2024/03/20 07:21:30;;;;;;;;;50.50;43.00;;;;;;;;6493248;39;8990;-55
2024/03/20 07:27:32;;;;;;;;;49.00;41.00;;;;;;;;6492795;31;9046;-56
2024/03/20 07:33:32;;;;;;;;;44.50;40.50;;;;;;;;6491686;39;8970;-58
2024/03/20 07:39:33;;;;;;;;;45.00;41.75;;;;;;;;6474231;39;8943;-56
2024/03/20 07:45:36;;;;;;;;;41.25;38.00;;;;;;;;6491903;39;8900;-57
2024/03/20 07:51:41;;;;;;;;;36.75;34.25;;;;;;;;6491553;46;8921;-57
2024/03/20 07:57:42;;;;;;;;;47.25;40.25;;;;;;;;6491913;31;9391;-55
2024/03/20 08:03:48;;;;;;;;;35.50;33.00;;;;;;;;6492033;39;9094;-57
2024/03/20 08:09:50;;;;;;;;;39.00;35.50;;;;;;;;6487011;39;9130;-55
2024/03/20 08:15:52;;;;;;;;;54.25;41.25;;;;;;;;6487994;46;8950;-58
2024/03/20 08:21:56;;;;;;;;;33.75;31.75;;;;;;;;6489213;39;9073;-60
2024/03/20 08:27:58;;;;;;;;;38.75;32.50;;;;;;;;6488812;31;9086;-58
2024/03/20 08:34:04;;;;;;;;;33.50;31.25;;;;;;;;6485182;46;9002;-58
2024/03/20 08:40:09;;;;;;;;;37.50;36.25;;;;;;;;6488237;39;9031;-56
2024/03/20 08:46:19;;;;;;;;;36.50;36.25;;;;;;;;6489318;31;9887;-55
2024/03/20 08:52:24;;;;;;;;;41.75;38.50;;;;;;;;6489782;39;8993;-57
2024/03/20 08:58:27;;;;;;;;;35.75;33.50;;;;;;;;6486589;39;8970;-57
2024/03/20 09:04:29;;;;;;;;;32.25;30.25;;;;;;;;6487117;47;8951;-58
2024/03/20 09:10:33;;;;;;;;;33.50;26.25;;;;;;;;6489012;39;8997;-58
2024/03/20 09:16:44;;;;;;;;;45.50;39.00;;;;;;;;6488750;31;8900;-58
2024/03/20 09:22:47;;;;;;;;;40.00;36.00;;;;;;;;6487180;47;8931;-59
2024/03/20 09:28:52;;;;;;;;;42.25;34.50;;;;;;;;6486349;47;9060;-59
2024/03/20 09:34:54;;;;;;;;;37.00;34.75;;;;;;;;6490071;31;8947;-59
2024/03/20 09:40:57;;;;;;;;;55.75;40.50;;;;;;;;6490851;31;8940;-58
2024/03/20 09:47:07;;;;;;;;;42.00;39.25;;;;;;;;6487628;46;9067;-58
2024/03/20 09:53:09;;;;;;;;;59.50;48.00;;;;;;;;6489691;31;8919;-60
2024/03/20 09:59:12;;;;;;;;;54.50;42.50;;;;;;;;6491448;31;9673;-60
2024/03/20 10:05:18;;;;;;;;;38.25;36.75;;;;;;;;6489903;31;8963;-59
2024/03/20 10:11:23;;;;;;;;;31.75;30.50;;;;;;;;6491321;39;8967;-60
2024/03/20 10:17:25;;;;;;;;;69.25;55.50;;;;;;;;6490842;39;9022;-59
2024/03/20 10:23:28;;;;;;;;;58.50;48.00;;;;;;;;6490655;39;9653;-59
2024/03/20 10:29:35;;;;;;;;;35.25;32.50;;;;;;;;6490859;31;8939;-58
2024/03/20 10:35:40;;;;;;;;;74.00;58.67;;;;;;;;6486250;39;8947;-59
2024/03/20 10:41:45;;;;;;;;;86.00;72.75;;;;;;;;6487737;46;8963;-58
2024/03/20 10:47:52;;;;;;;;;47.50;39.50;;;;;;;;6489273;46;8986;-56
2024/03/20 10:53:56;;;;;;;;;73.75;58.25;;;;;;;;6488629;39;8951;-58
2024/03/20 11:00:00;;;;;;;;;43.50;37.50;;;;;;;;6489614;46;9030;-57
2024/03/20 11:06:02;;;;;;;;;41.50;37.50;;;;;;;;6489377;39;9083;-59
2024/03/20 11:12:27;;;;;;;;;35.25;33.50;;;;;;;;6490047;46;9046;-58
2024/03/20 11:18:28;;;;;;;;;34.33;32.00;;;;;;;;6490223;46;8950;-59
2024/03/20 11:24:30;;;;;;;;;27.67;26.00;;;;;;;;6488466;46;8989;-58
2024/03/20 11:30:37;;;;;;;;;30.00;26.67;;;;;;;;6489030;39;8931;-59
2024/03/20 11:36:41;;;;;;;;;24.67;21.33;;;;;;;;6486925;39;8939;-58
2024/03/20 11:42:49;;;;;;;;;32.00;29.67;;;;;;;;6487320;46;8997;-57
2024/03/20 11:48:55;;;;;;;;;28.00;23.67;;;;;;;;6489210;39;9587;-57
2024/03/20 11:55:01;;;;;;;;;25.33;23.33;;;;;;;;6490619;31;8934;-58
2024/03/20 12:01:05;;;;;;;;;26.33;24.00;;;;;;;;6488051;39;8935;-59
2024/03/20 12:07:29;;;;;;;;;21.33;19.67;;;;;;;;6490762;39;8971;-58
2024/03/20 12:13:33;;;;;;;;;21.67;21.33;;;;;;;;6489171;39;9045;-58
2024/03/20 12:19:35;;;;;;;;;15.00;15.00;;;;;;;;6488674;39;9522;-56
2024/03/20 12:25:36;;;;;;;;;20.67;19.33;;;;;;;;6487792;31;9095;-58
2024/03/20 12:31:40;;;;;;;;;14.33;14.33;;;;;;;;6487867;46;9054;-57
2024/03/20 12:37:44;;;;;;;;;16.00;14.00;;;;;;;;6488822;39;8981;-59
2024/03/20 12:43:49;;;;;;;;;16.33;13.67;;;;;;;;6488938;31;8938;-59
2024/03/20 12:49:52;;;;;;;;;15.00;12.67;;;;;;;;6489355;39;8969;-60
2024/03/20 12:55:54;;;;;;;;;28.33;26.67;;;;;;;;6486143;39;9141;-59
2024/03/20 13:01:57;;;;;;;;;24.00;22.67;;;;;;;;6487589;39;8951;-58
2024/03/20 13:07:59;;;;;;;;;16.67;16.67;;;;;;;;6488355;39;9035;-59
2024/03/20 13:14:01;;;;;;;;;19.00;18.00;;;;;;;;6489124;39;9038;-58
2024/03/20 13:20:10;;;;;;;;;20.00;16.50;;;;;;;;6489362;46;9045;-59
2024/03/20 13:26:23;;;;;;;;;27.67;27.67;;;;;;;;6489397;31;9023;-59
2024/03/20 13:32:33;;;;;;;;;23.33;20.00;;;;;;;;6491858;31;8918;-58
2024/03/20 13:38:39;;;;;;;;;16.00;13.67;;;;;;;;6491257;39;9107;-58
2024/03/20 13:44:40;;;;;;;;;14.67;14.00;;;;;;;;6490977;39;8904;-60
2024/03/20 13:50:43;;;;;;;;;21.00;16.00;;;;;;;;6542508;36;9607;-59
2024/03/20 13:56:44;;;;;;;;;17.33;16.67;;;;;;;;6491379;39;8936;-60
2024/03/20 14:02:47;;;;;;;;;15.00;15.00;;;;;;;;6491193;39;8946;-58
2024/03/20 14:08:51;;;;;;;;;19.33;16.33;;;;;;;;6491322;39;8920;-60
2024/03/20 14:14:55;;;;;;;;;18.00;16.33;;;;;;;;6491421;39;8963;-58
2024/03/20 14:20:58;;;;;;;;;20.33;16.00;;;;;;;;6490600;39;9524;-60
2024/03/20 14:27:01;;;;;;;;;13.50;10.00;;;;;;;;6489080;46;8890;-58
2024/03/20 14:33:06;;;;;;;;;12.25;10.25;;;;;;;;6484503;46;8962;-56
2024/03/20 14:39:10;;;;;;;;;15.75;14.00;;;;;;;;6490258;39;8953;-57
2024/03/20 14:45:14;;;;;;;;;16.25;16.25;;;;;;;;6490485;39;10144;-58
2024/03/20 14:51:17;;;;;;;;;12.75;11.00;;;;;;;;6489733;31;9042;-58
2024/03/20 14:57:22;;;;;;;;;16.75;15.25;;;;;;;;6492187;39;8937;-60
2024/03/20 15:03:26;;;;;;;;;13.00;12.75;;;;;;;;6490804;46;8979;-60
2024/03/20 15:09:30;;;;;;;;;14.33;14.33;;;;;;;;6491636;39;8913;-58
2024/03/20 15:15:34;;;;;;;;;15.33;15.00;;;;;;;;6491411;36;9602;-55
2024/03/20 15:21:39;;;;;;;;;15.50;14.25;;;;;;;;6490240;39;9044;-57
2024/03/20 15:27:47;;;;;;;;;15.75;15.25;;;;;;;;6492099;31;8927;-57
2024/03/20 15:33:50;;;;;;;;;14.25;14.25;;;;;;;;6491595;39;8907;-59
2024/03/20 15:39:52;;;;;;;;;15.75;15.00;;;;;;;;6491900;39;9641;-58
2024/03/20 15:45:58;;;;;;;;;14.75;13.25;;;;;;;;6492656;31;8955;-58
2024/03/20 15:52:05;;;;;;;;;22.75;17.00;;;;;;;;6490653;39;8940;-58
2024/03/20 15:58:10;;;;;;;;;17.75;17.75;;;;;;;;6488611;46;9021;-61
2024/03/20 16:04:13;;;;;;;;;14.50;14.50;;;;;;;;6489732;39;9054;-60
2024/03/20 16:10:19;;;;;;;;;18.00;17.25;;;;;;;;6490769;39;8867;-58
2024/03/20 16:16:20;;;;;;;;;16.50;16.50;;;;;;;;6490081;31;8963;-60
2024/03/20 16:22:21;;;;;;;;;19.50;19.50;;;;;;;;6491864;39;8891;-59
2024/03/20 16:28:23;;;;;;;;;19.50;16.50;;;;;;;;6491265;39;9633;-57
2024/03/20 16:34:24;;;;;;;;;24.00;22.25;;;;;;;;6491345;39;8994;-57
2024/03/20 16:40:30;;;;;;;;;16.00;12.75;;;;;;;;6490555;46;8946;-59
2024/03/20 16:46:34;;;;;;;;;29.00;25.00;;;;;;;;6491224;39;8956;-59
2024/03/20 16:52:35;;;;;;;;;22.00;21.75;;;;;;;;6490998;39;8981;-58
2024/03/20 16:58:38;;;;;;;;;22.00;18.50;;;;;;;;6490862;39;8959;-57
2024/03/20 17:04:42;;;;;;;;;20.25;18.50;;;;;;;;6491052;39;8951;-58
2024/03/20 17:10:47;;;;;;;;;27.00;20.00;;;;;;;;6490350;47;8993;-57
2024/03/20 17:16:50;;;;;;;;;28.00;27.75;;;;;;;;6490069;47;8919;-57
2024/03/20 17:22:56;;;;;;;;;25.75;22.25;;;;;;;;6490375;39;8901;-56
2024/03/20 17:28:58;;;;;;;;;20.50;18.50;;;;;;;;6490387;39;8915;-55
2024/03/20 17:34:59;;;;;;;;;20.50;18.75;;;;;;;;6489557;47;9062;-55
2024/03/20 17:41:00;;;;;;;;;20.00;18.00;;;;;;;;6489637;31;9150;-57
2024/03/20 17:47:04;;;;;;;;;21.25;20.25;;;;;;;;6489668;39;8966;-58
2024/03/20 17:53:08;;;;;;;;;28.25;26.25;;;;;;;;6490657;39;9066;-58
2024/03/20 17:59:16;;;;;;;;;23.25;21.00;;;;;;;;6491842;39;8947;-57
2024/03/20 18:05:18;;;;;;;;;20.75;20.00;;;;;;;;6492335;31;9026;-58
2024/03/20 18:11:22;;;;;;;;;56.50;44.00;;;;;;;;6492367;39;9599;-58
2024/03/20 18:17:25;;;;;;;;;30.75;28.50;;;;;;;;6492599;39;8891;-56
2024/03/20 18:23:27;;;;;;;;;28.25;28.25;;;;;;;;6491682;39;8930;-58
2024/03/20 18:29:28;;;;;;;;;43.75;39.75;;;;;;;;6490238;46;8923;-58
2024/03/20 18:35:35;;;;;;;;;35.75;31.50;;;;;;;;6490880;46;8903;-59
2024/03/20 18:41:40;;;;;;;;;26.50;26.00;;;;;;;;6490913;46;8918;-59
2024/03/20 18:47:42;;;;;;;;;24.75;23.25;;;;;;;;6492518;46;8906;-58
2024/03/20 18:53:43;;;;;;;;;23.00;19.50;;;;;;;;6492551;39;8919;-57
2024/03/20 18:59:49;;;;;;;;;27.25;23.50;;;;;;;;6492970;31;8950;-58
2024/03/20 19:05:50;;;;;;;;;29.00;28.00;;;;;;;;6492488;31;8939;-57
2024/03/20 19:11:53;;;;;;;;;35.50;34.50;;;;;;;;6492504;31;8922;-57
2024/03/20 19:17:55;;;;;;;;;28.50;25.75;;;;;;;;6492192;39;8884;-55
2024/03/20 19:23:58;;;;;;;;;35.00;31.50;;;;;;;;6491797;39;8914;-58
2024/03/20 19:30:07;;;;;;;;;25.50;24.25;;;;;;;;6491944;39;8963;-58
2024/03/20 19:36:11;;;;;;;;;25.75;24.25;;;;;;;;6490567;39;8874;-56
2024/03/20 19:42:13;;;;;;;;;23.00;21.00;;;;;;;;6492202;31;8887;-58
2024/03/20 19:48:15;;;;;;;;;24.25;23.75;;;;;;;;6491713;39;9495;-57
2024/03/20 19:54:20;;;;;;;;;30.00;26.75;;;;;;;;6492340;31;8952;-57
2024/03/20 20:00:23;;;;;;;;;30.25;26.75;;;;;;;;6491472;46;9026;-57
2024/03/20 20:06:27;;;;;;;;;32.00;30.00;;;;;;;;6491572;39;8927;-57
2024/03/20 20:12:29;;;;;;;;;31.25;29.50;;;;;;;;6491321;39;9532;-58
2024/03/20 20:18:34;;;;;;;;;48.75;43.25;;;;;;;;6491622;39;8864;-58
2024/03/20 20:24:35;;;;;;;;;40.25;38.50;;;;;;;;6490991;31;8915;-57
2024/03/20 20:30:37;;;;;;;;;50.00;42.75;;;;;;;;6489830;46;8895;-57
2024/03/20 20:36:39;;;;;;;;;52.00;45.50;;;;;;;;6491458;39;8955;-58
2024/03/20 20:42:41;;;;;;;;;55.00;44.25;;;;;;;;6491106;39;8976;-57
2024/03/20 20:48:45;;;;;;;;;53.00;44.75;;;;;;;;6491003;31;9016;-58
2024/03/20 20:54:47;;;;;;;;;51.00;43.00;;;;;;;;6491473;31;8871;-57
2024/03/20 21:00:49;;;;;;;;;57.00;46.25;;;;;;;;6491952;31;9683;-57
2024/03/20 21:25:52;;;;;;;;;45.25;41.25;;;;;;;;6490428;39;8887;-58
2024/03/20 21:31:54;;;;;;;;;38.50;33.25;;;;;;;;6492682;39;8973;-56
2024/03/20 21:37:57;;;;;;;;;47.25;39.00;;;;;;;;6492877;39;8939;-59
2024/03/20 21:44:03;;;;;;;;;46.25;39.25;;;;;;;;6492518;31;8891;-56
2024/03/20 21:50:06;;;;;;;;;39.25;38.25;;;;;;;;6492975;39;8883;-56
2024/03/20 21:56:09;;;;;;;;;41.00;34.50;;;;;;;;6492962;31;9046;-57
2024/03/20 22:02:20;;;;;;;;;37.75;35.75;;;;;;;;6492001;31;8991;-57
2024/03/20 22:08:24;;;;;;;;;37.00;31.00;;;;;;;;6492134;46;8840;-57
2024/03/20 22:14:25;;;;;;;;;30.75;28.00;;;;;;;;6492451;39;9569;-55
2024/03/20 22:20:28;;;;;;;;;27.75;25.75;;;;;;;;6492221;46;8938;-54
2024/03/20 22:26:30;;;;;;;;;35.50;31.50;;;;;;;;6491281;39;8880;-54
2024/03/20 22:32:31;;;;;;;;;31.00;28.50;;;;;;;;6492083;46;9001;-56
2024/03/20 22:38:34;;;;;;;;;33.33;27.33;;;;;;;;6492024;46;8918;-58
2024/03/20 22:44:35;;;;;;;;;26.25;25.75;;;;;;;;6491628;46;8701;-56
2024/03/20 22:50:36;;;;;;;;;27.50;24.75;;;;;;;;6492443;39;9542;-57
2024/03/20 22:56:37;;;;;;;;;27.50;24.50;;;;;;;;6491797;39;8899;-57
2024/03/20 23:02:40;;;;;;;;;27.25;26.50;;;;;;;;6491661;46;8951;-55
2024/03/20 23:08:42;;;;;;;;;25.00;23.25;;;;;;;;6491513;46;8863;-55
2024/03/20 23:14:44;;;;;;;;;33.25;26.00;;;;;;;;6491996;46;8935;-54
2024/03/20 23:20:46;;;;;;;;;29.00;23.75;;;;;;;;6491465;39;8995;-57
2024/03/20 23:26:47;;;;;;;;;25.00;20.50;;;;;;;;6491764;39;8937;-56
2024/03/20 23:32:51;;;;;;;;;20.75;20.75;;;;;;;;6491339;39;8923;-57
2024/03/20 23:38:56;;;;;;;;;25.25;21.50;;;;;;;;6491895;39;8926;-55
2024/03/20 23:45:00;;;;;;;;;23.00;19.75;;;;;;;;6491305;46;8955;-57
2024/03/20 23:51:01;;;;;;;;;24.00;19.75;;;;;;;;6490657;46;8887;-56
2024/03/20 23:57:03;;;;;;;;;22.25;21.75;;;;;;;;6491366;46;8920;-56
